createdAt,value
2022-09-23T00:01:15.459Z,9.77
2022-09-23T00:03:47.457Z,11.05
2022-09-23T00:06:20.391Z,10.05
2022-09-23T00:08:49.720Z,10.23
2022-09-23T00:11:24.288Z,10.68
2022-09-23T00:13:58.797Z,10.52
2022-09-23T00:16:33.448Z,10.55
2022-09-23T00:19:04.601Z,9.82
2022-09-23T00:21:31.790Z,9.75
2022-09-23T00:23:59.878Z,10.65
2022-09-23T00:26:27.598Z,9.80
2022-09-23T00:28:54.992Z,9.45
2022-09-23T00:31:24.653Z,10.10
2022-09-23T00:34:01.897Z,9.65
2022-09-23T00:36:30.225Z,10.25
2022-09-23T00:38:57.103Z,9.88
2022-09-23T00:41:28.133Z,10.00
2022-09-23T00:44:00.558Z,10.02
2022-09-23T00:46:34.502Z,10.20
2022-09-23T00:49:13.653Z,10.52
2022-09-23T00:51:46.935Z,9.63
2022-09-23T00:54:40.576Z,10.48
2022-09-23T00:57:08.643Z,10.73
2022-09-23T00:59:36.311Z,11.48
2022-09-23T01:02:04.654Z,11.25
2022-09-23T01:08:50.857Z,11.50
2022-09-23T01:11:33.750Z,11.00
2022-09-23T01:14:35.325Z,11.10
2022-09-23T01:17:31.808Z,11.27
2022-09-23T01:20:01.757Z,11.15
2022-09-23T01:22:36.537Z,12.27
2022-09-23T01:25:09.216Z,12.50
2022-09-23T01:27:52.304Z,12.17
2022-09-23T01:30:37.391Z,12.40
2022-09-23T01:33:53.261Z,11.85
2022-09-23T01:36:34.185Z,12.30
2022-09-23T01:39:10.728Z,11.07
2022-09-23T01:42:04.764Z,11.88
2022-09-23T01:45:07.216Z,12.40
2022-09-23T01:47:38.825Z,11.63
2022-09-23T01:50:37.779Z,11.93
2022-09-23T01:57:23.202Z,11.90
2022-09-23T01:59:57.970Z,12.77
2022-09-23T02:02:32.250Z,13.07
2022-09-23T02:05:08.564Z,13.70
2022-09-23T02:07:43.960Z,12.73
2022-09-23T02:10:18.551Z,12.13
2022-09-23T02:13:51.391Z,13.02
2022-09-23T02:16:31.991Z,12.45
2022-09-23T02:19:23.749Z,13.73
2022-09-23T02:21:57.702Z,12.38
2022-09-23T02:24:32.154Z,12.48
2022-09-23T02:27:03.860Z,12.63
2022-09-23T02:29:41.412Z,12.45
2022-09-23T02:32:17.853Z,13.18
2022-09-23T02:35:01.295Z,12.55
2022-09-23T02:37:28.780Z,11.77
2022-09-23T02:40:04.211Z,12.95
2022-09-23T02:43:05.083Z,11.48
2022-09-23T02:45:33.743Z,11.73
2022-09-23T02:48:20.272Z,10.77
2022-09-23T02:50:50.480Z,12.35
2022-09-23T02:53:19.901Z,12.60
2022-09-23T02:55:46.894Z,13.77
2022-09-23T02:58:14.311Z,14.60
2022-09-23T03:00:41.281Z,14.05
2022-09-23T03:07:40.861Z,11.93
2022-09-23T03:10:25.847Z,12.20
2022-09-23T03:13:29.996Z,12.73
2022-09-23T03:16:31.420Z,11.88
2022-09-23T03:19:35.032Z,12.88
2022-09-23T03:22:20.973Z,11.87
2022-09-23T03:29:04.018Z,10.63
2022-09-23T03:31:33.503Z,11.00
2022-09-23T03:34:10.228Z,11.70
2022-09-23T03:36:53.730Z,11.20
2022-09-23T03:39:48.008Z,11.65
2022-09-23T03:42:20.858Z,10.20
2022-09-23T03:45:41.746Z,11.43
2022-09-23T03:48:09.173Z,10.07
2022-09-23T03:50:36.243Z,10.48
2022-09-23T03:57:34.680Z,10.30
2022-09-23T04:00:01.917Z,10.85
2022-09-23T04:02:38.925Z,10.27
2022-09-23T04:05:06.870Z,10.45
2022-09-23T04:07:33.922Z,10.00
2022-09-23T04:10:00.761Z,10.60
2022-09-23T04:12:27.641Z,11.18
2022-09-23T04:15:24.905Z,10.68
2022-09-23T04:17:51.967Z,10.40
2022-09-23T04:20:19.283Z,10.52
2022-09-23T04:22:46.189Z,10.85
2022-09-23T04:25:13.154Z,10.35
2022-09-23T04:27:40.131Z,9.38
2022-09-23T04:30:07.658Z,9.57
2022-09-23T04:32:34.517Z,11.15
2022-09-23T04:35:01.564Z,10.68
2022-09-23T04:37:29.453Z,10.90
2022-09-23T04:39:56.675Z,10.40
2022-09-23T04:42:23.647Z,10.82
2022-09-23T04:44:51.691Z,10.15
2022-09-23T04:47:19.324Z,10.57
2022-09-23T04:49:46.247Z,10.70
2022-09-23T04:52:13.124Z,10.15
2022-09-23T04:55:23.891Z,10.02
2022-09-23T04:57:50.975Z,9.88
2022-09-23T05:00:18.185Z,11.27
2022-09-23T05:02:50.547Z,10.90
2022-09-23T05:05:21.101Z,9.88
2022-09-23T05:07:48.636Z,9.68
2022-09-23T05:10:16.487Z,10.88
2022-09-23T05:13:15.000Z,9.90
2022-09-23T05:15:42.035Z,9.55
2022-09-23T05:18:09.276Z,10.60
2022-09-23T05:20:36.492Z,10.57
2022-09-23T05:23:05.546Z,9.55
2022-09-23T05:25:36.309Z,10.35
2022-09-23T05:28:05.260Z,10.90
2022-09-23T05:30:32.200Z,10.98
2022-09-23T05:33:21.233Z,11.10
2022-09-23T05:35:48.927Z,10.60
2022-09-23T05:38:17.017Z,10.10
2022-09-23T05:40:44.113Z,10.88
2022-09-23T05:43:38.052Z,11.98
2022-09-23T05:46:13.589Z,11.27
2022-09-23T05:48:41.572Z,11.80
2022-09-23T05:51:15.162Z,11.88
2022-09-23T05:56:32.772Z,12.40
2022-09-23T05:59:01.561Z,12.38
2022-09-23T06:01:34.453Z,12.70
2022-09-23T06:04:31.810Z,13.00
2022-09-23T06:07:03.047Z,12.70
2022-09-23T06:09:36.160Z,12.15
2022-09-23T06:12:04.782Z,13.18
2022-09-23T06:14:34.044Z,13.48
2022-09-23T06:17:01.032Z,13.13
2022-09-23T06:19:28.132Z,14.18
2022-09-23T06:21:55.114Z,14.85
2022-09-23T06:25:13.801Z,14.05
2022-09-23T06:27:40.787Z,13.18
2022-09-23T06:30:08.367Z,13.70
2022-09-23T06:32:35.860Z,13.05
2022-09-23T06:35:02.709Z,13.43
2022-09-23T06:37:32.070Z,15.93
2022-09-23T06:39:58.981Z,14.63
2022-09-23T06:42:25.830Z,15.40
2022-09-23T06:45:23.994Z,14.23
2022-09-23T06:47:56.303Z,13.90
2022-09-23T06:50:27.238Z,15.70
2022-09-23T06:52:56.852Z,15.30
2022-09-23T06:55:24.807Z,15.88
2022-09-23T06:57:51.766Z,15.05
2022-09-23T07:00:19.283Z,15.85
2022-09-23T07:02:46.555Z,16.00
2022-09-23T07:05:13.668Z,16.27
2022-09-23T07:07:41.291Z,17.30
2022-09-23T07:10:08.471Z,15.40
2022-09-23T07:12:35.338Z,17.75
2022-09-23T07:15:02.282Z,17.60
2022-09-23T07:17:29.585Z,16.40
2022-09-23T07:19:57.428Z,17.35
2022-09-23T07:22:26.403Z,16.35
2022-09-23T07:24:57.041Z,16.95
2022-09-23T07:27:25.857Z,17.30
2022-09-23T07:29:53.424Z,17.48
2022-09-23T07:32:22.127Z,16.92
2022-09-23T07:34:51.224Z,17.20
2022-09-23T07:37:18.482Z,17.13
2022-09-23T07:39:45.774Z,15.18
2022-09-23T07:42:13.687Z,16.60
2022-09-23T07:44:46.843Z,16.20
2022-09-23T07:47:14.337Z,18.00
2022-09-23T07:49:41.407Z,16.48
2022-09-23T07:52:08.301Z,16.45
2022-09-23T07:54:35.857Z,17.27
2022-09-23T07:57:02.907Z,16.25
2022-09-23T07:59:29.733Z,15.55
2022-09-23T08:01:57.254Z,16.02
2022-09-23T08:04:29.725Z,17.77
2022-09-23T08:07:02.594Z,16.08
2022-09-23T08:09:33.399Z,16.17
2022-09-23T08:12:00.769Z,15.90
2022-09-23T08:14:31.723Z,14.32
2022-09-23T08:16:58.594Z,16.23
2022-09-23T08:19:25.750Z,15.52
2022-09-23T08:21:52.600Z,14.05
2022-09-23T08:24:24.259Z,15.18
2022-09-23T08:26:53.365Z,14.52
2022-09-23T08:29:25.194Z,14.63
2022-09-23T08:31:52.796Z,14.35
2022-09-23T08:34:21.745Z,15.30
2022-09-23T08:36:48.720Z,14.27
2022-09-23T08:39:17.925Z,14.63
2022-09-23T08:41:58.999Z,11.90
2022-09-23T08:44:51.181Z,14.15
2022-09-23T08:47:43.799Z,15.23
2022-09-23T08:50:20.421Z,15.35
2022-09-23T08:53:00.083Z,16.45
2022-09-23T08:55:39.486Z,16.02
2022-09-23T08:58:27.153Z,16.73
2022-09-23T09:01:17.777Z,16.20
2022-09-23T09:03:53.846Z,16.27
2022-09-23T09:06:54.401Z,17.77
2022-09-23T09:09:57.848Z,15.27
2022-09-23T09:12:47.664Z,16.20
2022-09-23T09:15:20.865Z,15.93
2022-09-23T09:17:59.240Z,18.23
2022-09-23T09:20:40.079Z,18.27
2022-09-23T09:23:11.853Z,19.25
2022-09-23T09:25:41.546Z,17.65
2022-09-23T09:28:26.672Z,17.17
2022-09-23T09:30:59.472Z,19.60
2022-09-23T09:34:15.845Z,17.95
2022-09-23T09:36:50.107Z,16.48
2022-09-23T09:39:17.349Z,16.35
2022-09-23T09:41:49.816Z,16.58
2022-09-23T09:44:50.710Z,19.27
2022-09-23T09:47:48.576Z,21.83
2022-09-23T09:50:22.183Z,21.35
2022-09-23T09:52:56.097Z,22.95
2022-09-23T09:55:28.907Z,24.25
2022-09-23T09:58:05.687Z,25.38
2022-09-23T10:00:42.993Z,26.13
2022-09-23T10:03:14.069Z,26.50
2022-09-23T10:05:43.870Z,26.23
2022-09-23T10:08:16.571Z,28.10
2022-09-23T10:11:09.319Z,28.70
2022-09-23T10:13:39.371Z,26.23
2022-09-23T10:16:07.092Z,28.45
2022-09-23T10:18:38.403Z,26.58
2022-09-23T10:21:23.090Z,25.75
2022-09-23T10:24:01.806Z,26.55
2022-09-23T10:26:32.437Z,24.42
2022-09-23T10:29:02.645Z,25.98
2022-09-23T10:31:32.314Z,26.52
2022-09-23T10:34:20.888Z,25.60
2022-09-23T10:37:01.685Z,27.63
2022-09-23T10:39:47.031Z,28.73
2022-09-23T10:42:47.114Z,27.45
2022-09-23T10:45:43.873Z,26.77
2022-09-23T10:48:22.717Z,25.02
2022-09-23T10:50:54.818Z,26.38
2022-09-23T10:53:53.430Z,29.05
2022-09-23T10:56:36.118Z,26.55
2022-09-23T10:59:12.220Z,26.35
2022-09-23T11:01:59.196Z,26.13
2022-09-23T11:04:51.527Z,23.52
2022-09-23T11:07:44.357Z,24.25
2022-09-23T11:10:46.839Z,23.85
2022-09-23T11:13:35.860Z,23.58
2022-09-23T11:16:08.788Z,24.33
2022-09-23T11:18:48.551Z,22.98
2022-09-23T11:21:40.610Z,24.25
2022-09-23T11:24:07.912Z,22.25
2022-09-23T11:26:48.099Z,22.13
2022-09-23T11:29:35.408Z,22.42
2022-09-23T11:32:29.201Z,22.95
2022-09-23T11:34:57.153Z,20.70
2022-09-23T11:37:34.978Z,21.73
2022-09-23T11:40:04.830Z,19.50
2022-09-23T11:42:36.691Z,18.90
2022-09-23T11:45:15.030Z,15.63
2022-09-23T11:47:57.250Z,15.23
2022-09-23T11:50:37.224Z,14.65
2022-09-23T11:53:18.887Z,14.20
2022-09-23T11:56:12.668Z,14.52
2022-09-23T11:58:59.885Z,13.07
2022-09-23T12:01:37.939Z,13.70
2022-09-23T12:04:29.938Z,11.90
2022-09-23T12:07:09.344Z,11.55
2022-09-23T12:09:59.785Z,12.68
2022-09-23T12:13:04.994Z,11.00
2022-09-23T12:15:50.792Z,10.18
2022-09-23T12:18:37.388Z,10.25
2022-09-23T12:21:49.357Z,11.55
2022-09-23T12:24:51.869Z,10.25
2022-09-23T12:27:29.555Z,10.45
2022-09-23T12:30:01.482Z,10.07
2022-09-23T12:32:29.619Z,11.00
2022-09-23T12:35:00.561Z,10.95
2022-09-23T12:37:29.009Z,9.98
2022-09-23T12:40:01.964Z,9.32
2022-09-23T12:42:31.279Z,10.18
2022-09-23T12:45:19.340Z,11.32
2022-09-23T12:47:46.460Z,9.98
2022-09-23T12:50:54.061Z,12.02
2022-09-23T12:53:33.422Z,9.55
2022-09-23T12:56:27.805Z,9.27
2022-09-23T12:59:21.260Z,9.70
2022-09-23T13:01:48.456Z,10.40
2022-09-23T13:05:01.828Z,9.80
2022-09-23T13:07:33.955Z,11.50
2022-09-23T13:10:44.335Z,10.07
2022-09-23T13:13:33.666Z,10.48
2022-09-23T13:16:30.119Z,9.07
2022-09-23T13:19:05.783Z,8.93
2022-09-23T13:22:07.793Z,8.85
2022-09-23T13:24:46.178Z,7.35
2022-09-23T13:27:24.549Z,8.45
2022-09-23T13:29:55.881Z,7.50
2022-09-23T13:32:29.296Z,6.82
2022-09-23T13:35:04.284Z,6.97
2022-09-23T13:37:37.552Z,7.50
2022-09-23T13:40:28.210Z,6.85
2022-09-23T13:43:51.801Z,6.93
2022-09-23T13:46:21.624Z,7.00
2022-09-23T13:48:52.304Z,6.68
2022-09-23T13:51:24.798Z,7.45
2022-09-23T13:54:43.045Z,7.60
2022-09-23T13:57:34.496Z,7.68
2022-09-23T14:00:22.339Z,7.97
2022-09-23T14:02:49.423Z,6.97
2022-09-23T14:05:29.496Z,6.70
2022-09-23T14:07:57.046Z,8.13
2022-09-23T14:10:27.625Z,8.02
2022-09-23T14:12:59.305Z,8.27
2022-09-23T14:15:26.680Z,7.82
2022-09-23T14:18:02.810Z,8.20
2022-09-23T14:20:29.839Z,8.40
2022-09-23T14:23:11.423Z,8.55
2022-09-23T14:25:39.885Z,8.52
2022-09-23T14:28:07.302Z,9.60
2022-09-23T14:30:34.324Z,9.13
2022-09-23T14:34:04.100Z,8.50
2022-09-23T14:36:54.613Z,8.02
2022-09-23T14:39:21.653Z,8.88
2022-09-23T14:41:48.456Z,10.32
2022-09-23T14:44:35.785Z,9.30
2022-09-23T14:47:03.137Z,10.70
2022-09-23T14:49:30.127Z,9.77
2022-09-23T14:52:02.830Z,10.48
2022-09-23T14:54:39.737Z,10.20
2022-09-23T14:57:29.961Z,10.50
2022-09-23T15:00:00.769Z,10.32
2022-09-23T15:02:39.279Z,9.98
2022-09-23T15:05:22.068Z,11.38
2022-09-23T15:07:55.542Z,11.48
2022-09-23T15:10:33.417Z,11.18
2022-09-23T15:13:08.411Z,9.52
2022-09-23T15:15:35.952Z,11.93
2022-09-23T15:18:27.821Z,11.98
2022-09-23T15:21:09.726Z,10.02
2022-09-23T15:23:55.059Z,10.15
2022-09-23T15:26:24.757Z,11.35
2022-09-23T15:29:02.405Z,11.02
2022-09-23T15:31:33.004Z,11.63
2022-09-23T15:34:15.145Z,11.30
2022-09-23T15:40:40.456Z,11.93
2022-09-23T15:43:21.120Z,11.35
2022-09-23T15:45:51.715Z,11.32
2022-09-23T15:48:34.827Z,12.18
2022-09-23T15:51:15.299Z,11.48
2022-09-23T15:54:55.930Z,11.48
2022-09-23T16:01:56.981Z,9.93
2022-09-23T16:09:05.837Z,10.82
2022-09-23T16:15:50.352Z,11.88
2022-09-23T16:22:50.644Z,12.18
2022-09-23T16:25:36.526Z,14.57
2022-09-23T16:28:15.110Z,13.10
2022-09-23T16:30:48.957Z,12.95
2022-09-23T16:38:31.880Z,14.13
2022-09-23T16:41:25.736Z,13.95
2022-09-23T16:52:45.684Z,15.68
2022-09-23T16:56:50.172Z,14.20
2022-09-23T17:07:36.952Z,13.27
2022-09-23T17:13:35.069Z,14.15
2022-09-23T17:16:02.793Z,12.70
2022-09-23T17:18:36.775Z,13.82
2022-09-23T17:21:12.680Z,14.18
2022-09-23T17:27:24.609Z,13.25
2022-09-23T17:30:15.111Z,14.48
2022-09-23T17:32:43.251Z,13.60
2022-09-23T17:35:20.969Z,14.93
2022-09-23T17:37:50.776Z,14.18
2022-09-23T17:40:44.348Z,14.85
2022-09-23T17:48:03.417Z,13.85
2022-09-23T17:50:39.001Z,14.50
2022-09-23T17:53:10.444Z,13.85
2022-09-23T17:55:41.171Z,13.23
2022-09-23T17:58:08.220Z,13.07
2022-09-23T18:00:41.336Z,13.20
2022-09-23T18:03:38.809Z,13.77
2022-09-23T18:09:26.259Z,11.85
2022-09-23T18:14:42.830Z,10.98
2022-09-23T18:17:21.300Z,11.77
2022-09-23T18:19:56.478Z,10.93
2022-09-23T18:22:23.733Z,10.60
2022-09-23T18:25:35.432Z,10.93
2022-09-23T18:28:04.442Z,11.80
2022-09-23T18:30:33.016Z,11.68
2022-09-23T18:33:41.369Z,11.98
2022-09-23T18:36:09.347Z,10.40
2022-09-23T18:38:36.301Z,11.13
2022-09-23T18:41:03.737Z,9.48
2022-09-23T18:43:52.446Z,9.60
2022-09-23T18:46:24.829Z,9.57
2022-09-23T18:49:11.362Z,10.52
2022-09-23T18:51:56.183Z,11.18
2022-09-23T18:54:45.574Z,10.80
2022-09-23T18:57:14.719Z,9.68
2022-09-23T18:59:47.394Z,10.27
2022-09-23T19:02:15.479Z,10.32
2022-09-23T19:05:12.009Z,10.85
2022-09-23T19:07:39.510Z,10.77
2022-09-23T19:10:08.450Z,9.93
2022-09-23T19:12:35.456Z,10.60
2022-09-23T19:15:04.652Z,9.40
2022-09-23T19:17:31.805Z,11.00
2022-09-23T19:19:58.791Z,12.02
2022-09-23T19:22:26.003Z,10.32
2022-09-23T19:24:54.132Z,10.85
2022-09-23T19:27:21.090Z,11.27
2022-09-23T19:29:48.069Z,10.65
2022-09-23T19:32:15.933Z,10.68
2022-09-23T19:39:04.454Z,11.65
2022-09-23T19:41:33.557Z,11.68
2022-09-23T19:44:42.182Z,10.43
2022-09-23T19:50:46.674Z,10.98
2022-09-23T19:53:19.708Z,11.80
2022-09-23T19:56:58.064Z,10.88
2022-09-23T20:03:19.261Z,10.88
2022-09-23T20:05:59.063Z,11.95
2022-09-23T20:08:29.496Z,12.45
2022-09-23T20:08:52.781Z,10.77
2022-09-23T20:24:59.278Z,12.35
2022-09-23T20:27:57.356Z,9.80
2022-09-23T20:41:17.539Z,11.27
2022-09-23T20:43:32.358Z,11.95
2022-09-23T20:45:59.440Z,10.90
2022-09-23T20:48:26.786Z,10.82
2022-09-23T20:50:54.017Z,11.63
2022-09-23T20:53:39.827Z,10.57
2022-09-23T20:56:07.048Z,10.50
2022-09-23T20:58:37.373Z,11.30
2022-09-23T21:01:11.687Z,10.80
2022-09-23T21:04:10.228Z,12.20
2022-09-23T21:06:41.529Z,11.50
2022-09-23T21:09:09.760Z,10.90
2022-09-23T21:11:36.970Z,10.32
2022-09-23T21:14:48.269Z,10.82
2022-09-23T21:17:15.621Z,10.90
2022-09-23T21:19:42.638Z,13.10
2022-09-23T21:22:10.613Z,10.98
2022-09-23T21:25:49.481Z,11.15
2022-09-23T21:28:16.616Z,11.05
2022-09-23T21:30:46.370Z,12.07
2022-09-23T21:33:18.263Z,10.60
2022-09-23T21:35:45.122Z,10.88
2022-09-23T21:38:20.775Z,11.88
2022-09-23T21:40:56.930Z,10.85
2022-09-23T21:43:33.706Z,10.32
2022-09-23T21:46:06.936Z,10.13
2022-09-23T21:48:36.183Z,10.88
2022-09-23T21:51:19.562Z,11.35
2022-09-23T21:53:55.856Z,11.05
2022-09-23T21:56:28.757Z,10.85
2022-09-23T21:58:57.882Z,10.77
2022-09-23T22:01:30.562Z,9.52
2022-09-23T22:04:24.598Z,9.93
2022-09-23T22:06:59.118Z,11.00
2022-09-23T22:09:26.389Z,10.98
2022-09-23T22:12:05.364Z,11.40
2022-09-23T22:15:15.655Z,10.60
2022-09-23T22:18:22.337Z,10.63
2022-09-23T22:20:55.320Z,10.10
2022-09-23T22:31:42.013Z,9.20
2022-09-23T22:34:49.585Z,9.73
2022-09-23T22:41:27.917Z,8.88
2022-09-23T22:44:00.658Z,8.25
2022-09-23T22:46:53.580Z,9.20
2022-09-23T22:52:50.000Z,8.43
2022-09-23T22:55:25.677Z,8.38
2022-09-23T22:57:52.788Z,8.05
2022-09-23T23:00:38.849Z,8.32
2022-09-23T23:03:07.078Z,7.85
2022-09-23T23:05:34.016Z,8.68
2022-09-23T23:08:01.475Z,8.13
2022-09-23T23:10:28.543Z,8.45
2022-09-23T23:14:06.190Z,8.30
2022-09-23T23:16:35.909Z,8.55
2022-09-23T23:19:13.305Z,7.88
2022-09-23T23:22:12.920Z,8.40
2022-09-23T23:24:40.114Z,7.55
2022-09-23T23:27:07.396Z,7.88
2022-09-23T23:29:35.898Z,8.18
2022-09-23T23:32:10.320Z,8.27
2022-09-23T23:35:28.998Z,8.27
2022-09-23T23:38:14.247Z,7.65
2022-09-23T23:40:41.600Z,8.10
2022-09-23T23:43:12.488Z,7.88
2022-09-23T23:45:40.052Z,9.63
2022-09-23T23:48:07.199Z,8.63
2022-09-23T23:50:35.165Z,8.93
2022-09-23T23:53:06.749Z,3.15
2022-09-23T23:55:38.801Z,8.30
2022-09-23T23:58:06.232Z,8.85
